sensor_id;sensor_type;location;lat;lon;timestamp;temperature;humidity
18291;DHT22;9271;48.590;8.866;2023-04-15T00:01:37;5.80;95.90
18291;DHT22;9271;48.590;8.866;2023-04-15T00:04:04;5.70;95.90
18291;DHT22;9271;48.590;8.866;2023-04-15T00:06:30;5.70;95.80
18291;DHT22;9271;48.590;8.866;2023-04-15T00:08:58;5.70;95.60
18291;DHT22;9271;48.590;8.866;2023-04-15T00:11:25;5.70;95.90
18291;DHT22;9271;48.590;8.866;2023-04-15T00:13:52;5.60;95.80
18291;DHT22;9271;48.590;8.866;2023-04-15T00:16:19;5.60;96.00
18291;DHT22;9271;48.590;8.866;2023-04-15T00:18:45;5.60;96.30
18291;DHT22;9271;48.590;8.866;2023-04-15T00:21:12;5.50;96.70
18291;DHT22;9271;48.590;8.866;2023-04-15T00:23:39;5.30;97.20
18291;DHT22;9271;48.590;8.866;2023-04-15T00:26:07;5.40;97.20
18291;DHT22;9271;48.590;8.866;2023-04-15T00:28:34;5.40;97.20
18291;DHT22;9271;48.590;8.866;2023-04-15T00:31:00;5.30;97.10
18291;DHT22;9271;48.590;8.866;2023-04-15T00:33:27;5.30;97.60
18291;DHT22;9271;48.590;8.866;2023-04-15T00:35:54;5.30;97.50
18291;DHT22;9271;48.590;8.866;2023-04-15T00:38:21;5.20;97.90
18291;DHT22;9271;48.590;8.866;2023-04-15T00:40:47;5.30;97.20
18291;DHT22;9271;48.590;8.866;2023-04-15T00:43:15;5.30;97.10
18291;DHT22;9271;48.590;8.866;2023-04-15T00:45:42;5.30;97.20
18291;DHT22;9271;48.590;8.866;2023-04-15T00:48:11;5.30;97.50
18291;DHT22;9271;48.590;8.866;2023-04-15T00:50:38;5.30;97.40
18291;DHT22;9271;48.590;8.866;2023-04-15T00:53:04;5.30;97.50
18291;DHT22;9271;48.590;8.866;2023-04-15T00:55:31;5.30;97.20
18291;DHT22;9271;48.590;8.866;2023-04-15T00:57:58;5.20;97.40
18291;DHT22;9271;48.590;8.866;2023-04-15T01:00:26;5.20;97.50
18291;DHT22;9271;48.590;8.866;2023-04-15T01:02:53;5.20;97.60
18291;DHT22;9271;48.590;8.866;2023-04-15T01:05:20;5.30;97.50
18291;DHT22;9271;48.590;8.866;2023-04-15T01:07:47;5.20;97.50
18291;DHT22;9271;48.590;8.866;2023-04-15T01:10:14;5.00;97.70
18291;DHT22;9271;48.590;8.866;2023-04-15T01:12:40;4.60;99.00
18291;DHT22;9271;48.590;8.866;2023-04-15T01:15:08;4.70;99.00
18291;DHT22;9271;48.590;8.866;2023-04-15T01:17:37;5.00;98.40
18291;DHT22;9271;48.590;8.866;2023-04-15T01:20:05;5.10;98.10
18291;DHT22;9271;48.590;8.866;2023-04-15T01:22:34;5.00;98.10
18291;DHT22;9271;48.590;8.866;2023-04-15T01:25:08;5.10;98.00
18291;DHT22;9271;48.590;8.866;2023-04-15T01:27:38;5.10;98.00
18291;DHT22;9271;48.590;8.866;2023-04-15T01:30:06;5.00;98.30
18291;DHT22;9271;48.590;8.866;2023-04-15T01:32:33;5.00;98.00
18291;DHT22;9271;48.590;8.866;2023-04-15T01:35:00;5.00;98.20
18291;DHT22;9271;48.590;8.866;2023-04-15T01:37:28;4.90;98.60
18291;DHT22;9271;48.590;8.866;2023-04-15T01:39:55;4.80;98.90
18291;DHT22;9271;48.590;8.866;2023-04-15T01:42:22;4.60;99.40
18291;DHT22;9271;48.590;8.866;2023-04-15T01:44:51;4.80;99.40
18291;DHT22;9271;48.590;8.866;2023-04-15T01:47:18;4.90;98.90
18291;DHT22;9271;48.590;8.866;2023-04-15T01:49:45;4.90;98.70
18291;DHT22;9271;48.590;8.866;2023-04-15T01:52:11;4.90;98.70
18291;DHT22;9271;48.590;8.866;2023-04-15T01:54:38;4.90;98.90
18291;DHT22;9271;48.590;8.866;2023-04-15T01:57:05;4.90;98.50
18291;DHT22;9271;48.590;8.866;2023-04-15T01:59:32;4.90;98.50
18291;DHT22;9271;48.590;8.866;2023-04-15T02:02:00;5.00;98.40
18291;DHT22;9271;48.590;8.866;2023-04-15T02:04:27;4.80;98.50
18291;DHT22;9271;48.590;8.866;2023-04-15T02:06:54;4.90;98.50
18291;DHT22;9271;48.590;8.866;2023-04-15T02:09:21;4.80;98.60
18291;DHT22;9271;48.590;8.866;2023-04-15T02:11:48;4.60;98.80
18291;DHT22;9271;48.590;8.866;2023-04-15T02:14:15;4.20;99.70
18291;DHT22;9271;48.590;8.866;2023-04-15T02:16:42;4.20;99.90
18291;DHT22;9271;48.590;8.866;2023-04-15T02:19:10;4.20;99.80
18291;DHT22;9271;48.590;8.866;2023-04-15T02:21:37;4.30;99.90
18291;DHT22;9271;48.590;8.866;2023-04-15T02:24:04;4.30;99.80
18291;DHT22;9271;48.590;8.866;2023-04-15T02:26:31;4.30;99.60
18291;DHT22;9271;48.590;8.866;2023-04-15T02:28:58;4.10;99.90
18291;DHT22;9271;48.590;8.866;2023-04-15T02:31:25;4.20;99.90
18291;DHT22;9271;48.590;8.866;2023-04-15T02:33:52;4.20;99.90
18291;DHT22;9271;48.590;8.866;2023-04-15T02:36:20;4.20;99.90
18291;DHT22;9271;48.590;8.866;2023-04-15T02:38:48;4.20;99.90
18291;DHT22;9271;48.590;8.866;2023-04-15T02:41:15;4.30;99.90
18291;DHT22;9271;48.590;8.866;2023-04-15T02:43:41;4.40;99.70
18291;DHT22;9271;48.590;8.866;2023-04-15T02:46:08;4.50;99.70
18291;DHT22;9271;48.590;8.866;2023-04-15T02:48:38;4.50;99.80
18291;DHT22;9271;48.590;8.866;2023-04-15T02:51:16;4.60;99.70
18291;DHT22;9271;48.590;8.866;2023-04-15T02:53:45;4.50;99.80
18291;DHT22;9271;48.590;8.866;2023-04-15T02:56:12;4.40;99.90
18291;DHT22;9271;48.590;8.866;2023-04-15T02:58:40;4.60;99.90
18291;DHT22;9271;48.590;8.866;2023-04-15T03:01:07;4.60;99.90
18291;DHT22;9271;48.590;8.866;2023-04-15T03:03:34;4.70;99.70
18291;DHT22;9271;48.590;8.866;2023-04-15T03:06:01;4.80;99.50
18291;DHT22;9271;48.590;8.866;2023-04-15T03:08:27;4.70;99.30
18291;DHT22;9271;48.590;8.866;2023-04-15T03:10:57;4.50;99.60
18291;DHT22;9271;48.590;8.866;2023-04-15T03:13:25;4.40;99.70
18291;DHT22;9271;48.590;8.866;2023-04-15T03:15:51;4.40;99.90
18291;DHT22;9271;48.590;8.866;2023-04-15T03:18:18;4.40;99.80
18291;DHT22;9271;48.590;8.866;2023-04-15T03:20:45;4.10;99.90
18291;DHT22;9271;48.590;8.866;2023-04-15T03:23:11;4.10;99.90
18291;DHT22;9271;48.590;8.866;2023-04-15T03:25:38;4.10;99.90
18291;DHT22;9271;48.590;8.866;2023-04-15T03:28:06;4.30;99.80
18291;DHT22;9271;48.590;8.866;2023-04-15T03:30:33;4.40;99.70
18291;DHT22;9271;48.590;8.866;2023-04-15T03:33:00;4.10;99.90
18291;DHT22;9271;48.590;8.866;2023-04-15T03:35:27;4.00;99.80
18291;DHT22;9271;48.590;8.866;2023-04-15T03:37:53;3.90;99.90
18291;DHT22;9271;48.590;8.866;2023-04-15T03:40:20;4.00;99.60
18291;DHT22;9271;48.590;8.866;2023-04-15T03:42:47;4.00;99.80
18291;DHT22;9271;48.590;8.866;2023-04-15T03:45:16;3.90;99.90
18291;DHT22;9271;48.590;8.866;2023-04-15T03:47:42;4.00;99.50
18291;DHT22;9271;48.590;8.866;2023-04-15T03:50:09;4.00;99.50
18291;DHT22;9271;48.590;8.866;2023-04-15T03:52:36;3.90;99.70
18291;DHT22;9271;48.590;8.866;2023-04-15T03:55:03;3.90;99.90
18291;DHT22;9271;48.590;8.866;2023-04-15T03:57:30;3.80;99.90
18291;DHT22;9271;48.590;8.866;2023-04-15T03:59:56;3.60;99.90
18291;DHT22;9271;48.590;8.866;2023-04-15T04:02:24;3.60;99.90
18291;DHT22;9271;48.590;8.866;2023-04-15T04:04:52;3.50;99.90
18291;DHT22;9271;48.590;8.866;2023-04-15T04:07:19;3.50;99.90
18291;DHT22;9271;48.590;8.866;2023-04-15T04:09:45;3.50;99.90
18291;DHT22;9271;48.590;8.866;2023-04-15T04:12:12;3.60;99.90
18291;DHT22;9271;48.590;8.866;2023-04-15T04:14:39;3.60;99.90
18291;DHT22;9271;48.590;8.866;2023-04-15T04:17:05;3.60;99.90
18291;DHT22;9271;48.590;8.866;2023-04-15T04:19:34;3.60;99.90
18291;DHT22;9271;48.590;8.866;2023-04-15T04:22:01;3.80;99.90
18291;DHT22;9271;48.590;8.866;2023-04-15T04:24:27;3.80;99.80
18291;DHT22;9271;48.590;8.866;2023-04-15T04:26:54;3.70;99.90
18291;DHT22;9271;48.590;8.866;2023-04-15T04:29:21;3.60;99.90
18291;DHT22;9271;48.590;8.866;2023-04-15T04:31:48;3.60;99.90
18291;DHT22;9271;48.590;8.866;2023-04-15T04:34:15;3.70;99.90
18291;DHT22;9271;48.590;8.866;2023-04-15T04:36:43;3.90;99.90
18291;DHT22;9271;48.590;8.866;2023-04-15T04:39:09;3.90;99.80
18291;DHT22;9271;48.590;8.866;2023-04-15T04:41:36;3.90;99.80
18291;DHT22;9271;48.590;8.866;2023-04-15T04:44:03;3.70;99.90
18291;DHT22;9271;48.590;8.866;2023-04-15T04:46:30;3.60;99.90
18291;DHT22;9271;48.590;8.866;2023-04-15T04:48:56;3.40;99.90
18291;DHT22;9271;48.590;8.866;2023-04-15T04:51:23;3.30;99.90
18291;DHT22;9271;48.590;8.866;2023-04-15T04:53:51;3.40;99.90
18291;DHT22;9271;48.590;8.866;2023-04-15T04:56:19;3.40;99.90
18291;DHT22;9271;48.590;8.866;2023-04-15T04:58:45;3.60;99.90
18291;DHT22;9271;48.590;8.866;2023-04-15T05:01:12;3.60;99.90
18291;DHT22;9271;48.590;8.866;2023-04-15T05:03:39;3.70;99.90
18291;DHT22;9271;48.590;8.866;2023-04-15T05:06:06;3.70;99.90
18291;DHT22;9271;48.590;8.866;2023-04-15T05:08:33;3.90;99.90
18291;DHT22;9271;48.590;8.866;2023-04-15T05:11:02;3.90;99.90
18291;DHT22;9271;48.590;8.866;2023-04-15T05:13:28;4.00;99.90
18291;DHT22;9271;48.590;8.866;2023-04-15T05:15:55;4.10;99.90
18291;DHT22;9271;48.590;8.866;2023-04-15T05:18:22;4.20;99.90
18291;DHT22;9271;48.590;8.866;2023-04-15T05:20:49;4.30;99.90
18291;DHT22;9271;48.590;8.866;2023-04-15T05:23:15;4.40;99.90
18291;DHT22;9271;48.590;8.866;2023-04-15T05:25:43;4.40;99.90
18291;DHT22;9271;48.590;8.866;2023-04-15T05:28:11;4.40;99.90
18291;DHT22;9271;48.590;8.866;2023-04-15T05:30:38;4.50;99.90
18291;DHT22;9271;48.590;8.866;2023-04-15T05:33:05;4.50;99.90
18291;DHT22;9271;48.590;8.866;2023-04-15T05:35:31;4.80;99.90
18291;DHT22;9271;48.590;8.866;2023-04-15T05:37:58;4.80;99.90
18291;DHT22;9271;48.590;8.866;2023-04-15T05:40:25;5.00;99.60
18291;DHT22;9271;48.590;8.866;2023-04-15T05:42:52;5.10;99.40
18291;DHT22;9271;48.590;8.866;2023-04-15T05:45:20;5.20;99.30
18291;DHT22;9271;48.590;8.866;2023-04-15T05:47:47;5.40;98.90
18291;DHT22;9271;48.590;8.866;2023-04-15T05:50:15;5.30;99.20
18291;DHT22;9271;48.590;8.866;2023-04-15T05:52:42;5.20;99.10
18291;DHT22;9271;48.590;8.866;2023-04-15T05:55:09;5.20;99.30
18291;DHT22;9271;48.590;8.866;2023-04-15T05:57:36;5.40;99.10
18291;DHT22;9271;48.590;8.866;2023-04-15T06:00:04;5.30;98.90
18291;DHT22;9271;48.590;8.866;2023-04-15T06:02:32;5.40;99.20
18291;DHT22;9271;48.590;8.866;2023-04-15T06:04:59;5.50;98.80
18291;DHT22;9271;48.590;8.866;2023-04-15T06:07:25;5.70;98.20
18291;DHT22;9271;48.590;8.866;2023-04-15T06:09:52;6.00;97.80
18291;DHT22;9271;48.590;8.866;2023-04-15T06:12:19;6.10;97.60
18291;DHT22;9271;48.590;8.866;2023-04-15T06:14:45;6.10;97.30
18291;DHT22;9271;48.590;8.866;2023-04-15T06:17:12;6.20;97.10
18291;DHT22;9271;48.590;8.866;2023-04-15T06:19:40;6.30;97.40
18291;DHT22;9271;48.590;8.866;2023-04-15T06:22:08;6.20;97.20
18291;DHT22;9271;48.590;8.866;2023-04-15T06:24:34;6.00;97.60
18291;DHT22;9271;48.590;8.866;2023-04-15T06:27:01;6.20;97.00
18291;DHT22;9271;48.590;8.866;2023-04-15T06:29:28;6.20;96.60
18291;DHT22;9271;48.590;8.866;2023-04-15T06:31:55;6.30;97.00
18291;DHT22;9271;48.590;8.866;2023-04-15T06:34:22;6.60;96.60
18291;DHT22;9271;48.590;8.866;2023-04-15T06:36:50;6.70;96.10
18291;DHT22;9271;48.590;8.866;2023-04-15T06:39:16;6.70;96.50
18291;DHT22;9271;48.590;8.866;2023-04-15T06:41:43;6.90;96.30
18291;DHT22;9271;48.590;8.866;2023-04-15T06:44:10;7.00;95.60
18291;DHT22;9271;48.590;8.866;2023-04-15T06:46:37;7.10;95.70
18291;DHT22;9271;48.590;8.866;2023-04-15T06:49:03;7.10;95.60
18291;DHT22;9271;48.590;8.866;2023-04-15T06:51:30;7.00;95.60
18291;DHT22;9271;48.590;8.866;2023-04-15T06:53:58;7.40;95.50
18291;DHT22;9271;48.590;8.866;2023-04-15T06:56:25;7.40;95.00
18291;DHT22;9271;48.590;8.866;2023-04-15T06:58:52;7.70;94.70
18291;DHT22;9271;48.590;8.866;2023-04-15T07:01:18;8.30;93.90
18291;DHT22;9271;48.590;8.866;2023-04-15T07:03:45;8.80;92.80
18291;DHT22;9271;48.590;8.866;2023-04-15T07:06:12;9.60;91.90
18291;DHT22;9271;48.590;8.866;2023-04-15T07:08:39;10.40;90.40
18291;DHT22;9271;48.590;8.866;2023-04-15T07:11:07;10.70;87.30
18291;DHT22;9271;48.590;8.866;2023-04-15T07:13:34;11.10;86.10
18291;DHT22;9271;48.590;8.866;2023-04-15T07:16:01;12.00;83.10
18291;DHT22;9271;48.590;8.866;2023-04-15T07:18:27;13.00;81.70
18291;DHT22;9271;48.590;8.866;2023-04-15T07:20:54;13.90;78.20
18291;DHT22;9271;48.590;8.866;2023-04-15T07:23:21;14.50;75.60
18291;DHT22;9271;48.590;8.866;2023-04-15T07:25:48;14.80;73.40
18291;DHT22;9271;48.590;8.866;2023-04-15T07:28:17;15.20;71.60
18291;DHT22;9271;48.590;8.866;2023-04-15T07:30:44;15.10;70.10
18291;DHT22;9271;48.590;8.866;2023-04-15T07:33:10;14.70;69.20
18291;DHT22;9271;48.590;8.866;2023-04-15T07:35:37;15.20;69.30
18291;DHT22;9271;48.590;8.866;2023-04-15T07:38:04;15.40;67.10
18291;DHT22;9271;48.590;8.866;2023-04-15T07:40:31;14.00;71.30
18291;DHT22;9271;48.590;8.866;2023-04-15T07:42:58;13.70;72.30
18291;DHT22;9271;48.590;8.866;2023-04-15T07:45:26;13.70;72.30
18291;DHT22;9271;48.590;8.866;2023-04-15T07:47:53;13.40;73.10
18291;DHT22;9271;48.590;8.866;2023-04-15T07:50:20;13.60;73.50
18291;DHT22;9271;48.590;8.866;2023-04-15T07:52:47;13.80;74.60
18291;DHT22;9271;48.590;8.866;2023-04-15T07:55:14;14.20;72.60
18291;DHT22;9271;48.590;8.866;2023-04-15T07:57:43;14.80;71.00
18291;DHT22;9271;48.590;8.866;2023-04-15T08:00:13;15.10;70.20
18291;DHT22;9271;48.590;8.866;2023-04-15T08:02:42;15.60;69.90
18291;DHT22;9271;48.590;8.866;2023-04-15T08:05:09;16.10;67.70
18291;DHT22;9271;48.590;8.866;2023-04-15T08:07:36;16.10;66.30
18291;DHT22;9271;48.590;8.866;2023-04-15T08:10:04;16.60;65.50
18291;DHT22;9271;48.590;8.866;2023-04-15T08:12:31;17.10;64.80
18291;DHT22;9271;48.590;8.866;2023-04-15T08:14:58;18.50;61.00
18291;DHT22;9271;48.590;8.866;2023-04-15T08:17:25;19.00;58.70
18291;DHT22;9271;48.590;8.866;2023-04-15T08:19:54;18.80;57.60
18291;DHT22;9271;48.590;8.866;2023-04-15T08:22:20;18.70;57.40
18291;DHT22;9271;48.590;8.866;2023-04-15T08:24:47;17.60;58.10
18291;DHT22;9271;48.590;8.866;2023-04-15T08:27:14;17.50;59.60
18291;DHT22;9271;48.590;8.866;2023-04-15T08:29:40;17.40;59.30
18291;DHT22;9271;48.590;8.866;2023-04-15T08:32:07;17.00;59.30
18291;DHT22;9271;48.590;8.866;2023-04-15T08:34:35;17.00;61.50
18291;DHT22;9271;48.590;8.866;2023-04-15T08:37:03;17.10;60.70
18291;DHT22;9271;48.590;8.866;2023-04-15T08:39:30;17.00;60.30
18291;DHT22;9271;48.590;8.866;2023-04-15T08:42:00;16.60;62.00
18291;DHT22;9271;48.590;8.866;2023-04-15T08:44:28;16.60;61.50
18291;DHT22;9271;48.590;8.866;2023-04-15T08:46:56;16.80;60.70
18291;DHT22;9271;48.590;8.866;2023-04-15T08:49:26;17.30;61.20
18291;DHT22;9271;48.590;8.866;2023-04-15T08:51:54;17.30;60.60
18291;DHT22;9271;48.590;8.866;2023-04-15T08:54:23;16.90;58.80
18291;DHT22;9271;48.590;8.866;2023-04-15T08:56:51;16.40;61.80
18291;DHT22;9271;48.590;8.866;2023-04-15T08:59:18;16.80;62.90
18291;DHT22;9271;48.590;8.866;2023-04-15T09:01:46;16.90;59.50
18291;DHT22;9271;48.590;8.866;2023-04-15T09:04:13;16.60;60.10
18291;DHT22;9271;48.590;8.866;2023-04-15T09:06:40;16.40;61.80
18291;DHT22;9271;48.590;8.866;2023-04-15T09:09:07;16.30;62.40
18291;DHT22;9271;48.590;8.866;2023-04-15T09:11:35;16.30;62.30
18291;DHT22;9271;48.590;8.866;2023-04-15T09:14:02;16.50;62.50
18291;DHT22;9271;48.590;8.866;2023-04-15T09:16:28;16.10;62.60
18291;DHT22;9271;48.590;8.866;2023-04-15T09:18:56;16.20;61.40
18291;DHT22;9271;48.590;8.866;2023-04-15T09:21:23;16.80;62.30
18291;DHT22;9271;48.590;8.866;2023-04-15T09:23:55;17.00;63.00
18291;DHT22;9271;48.590;8.866;2023-04-15T09:26:31;17.60;62.70
18291;DHT22;9271;48.590;8.866;2023-04-15T09:29:03;18.30;60.60
18291;DHT22;9271;48.590;8.866;2023-04-15T09:31:31;18.80;60.40
18291;DHT22;9271;48.590;8.866;2023-04-15T09:33:58;19.00;58.90
18291;DHT22;9271;48.590;8.866;2023-04-15T09:36:25;18.80;60.30
18291;DHT22;9271;48.590;8.866;2023-04-15T09:38:55;19.50;59.00
18291;DHT22;9271;48.590;8.866;2023-04-15T09:41:22;19.70;59.00
18291;DHT22;9271;48.590;8.866;2023-04-15T09:43:49;20.20;57.10
18291;DHT22;9271;48.590;8.866;2023-04-15T09:46:17;19.00;58.90
18291;DHT22;9271;48.590;8.866;2023-04-15T09:48:44;19.40;61.70
18291;DHT22;9271;48.590;8.866;2023-04-15T09:51:11;21.20;58.90
18291;DHT22;9271;48.590;8.866;2023-04-15T09:53:38;22.20;56.30
18291;DHT22;9271;48.590;8.866;2023-04-15T09:56:05;23.80;54.00
18291;DHT22;9271;48.590;8.866;2023-04-15T09:58:34;23.60;52.30
18291;DHT22;9271;48.590;8.866;2023-04-15T10:01:04;24.10;52.00
18291;DHT22;9271;48.590;8.866;2023-04-15T10:03:34;24.50;49.30
18291;DHT22;9271;48.590;8.866;2023-04-15T10:06:02;24.80;48.20
18291;DHT22;9271;48.590;8.866;2023-04-15T10:08:32;24.10;45.20
18291;DHT22;9271;48.590;8.866;2023-04-15T10:11:01;24.40;45.50
18291;DHT22;9271;48.590;8.866;2023-04-15T10:13:30;24.00;42.70
18291;DHT22;9271;48.590;8.866;2023-04-15T10:16:04;23.50;43.60
18291;DHT22;9271;48.590;8.866;2023-04-15T10:18:35;24.30;41.80
18291;DHT22;9271;48.590;8.866;2023-04-15T10:21:03;24.50;42.80
18291;DHT22;9271;48.590;8.866;2023-04-15T10:23:31;25.40;39.70
18291;DHT22;9271;48.590;8.866;2023-04-15T10:25:59;25.60;38.30
18291;DHT22;9271;48.590;8.866;2023-04-15T10:28:26;24.90;37.10
18291;DHT22;9271;48.590;8.866;2023-04-15T10:30:53;25.00;37.10
18291;DHT22;9271;48.590;8.866;2023-04-15T10:33:21;24.60;37.60
18291;DHT22;9271;48.590;8.866;2023-04-15T10:35:51;23.90;36.20
18291;DHT22;9271;48.590;8.866;2023-04-15T10:38:31;23.80;39.10
18291;DHT22;9271;48.590;8.866;2023-04-15T10:41:12;24.10;37.80
18291;DHT22;9271;48.590;8.866;2023-04-15T10:43:39;24.90;36.30
18291;DHT22;9271;48.590;8.866;2023-04-15T10:46:10;25.50;34.80
18291;DHT22;9271;48.590;8.866;2023-04-15T10:48:37;25.70;32.90
18291;DHT22;9271;48.590;8.866;2023-04-15T10:51:05;24.50;31.30
18291;DHT22;9271;48.590;8.866;2023-04-15T10:53:33;25.40;31.20
18291;DHT22;9271;48.590;8.866;2023-04-15T10:56:03;26.80;28.70
18291;DHT22;9271;48.590;8.866;2023-04-15T10:58:40;27.60;28.00
18291;DHT22;9271;48.590;8.866;2023-04-15T11:01:07;29.50;28.40
18291;DHT22;9271;48.590;8.866;2023-04-15T11:03:37;29.00;27.60
18291;DHT22;9271;48.590;8.866;2023-04-15T11:06:06;27.30;26.80
18291;DHT22;9271;48.590;8.866;2023-04-15T11:08:55;25.20;26.90
18291;DHT22;9271;48.590;8.866;2023-04-15T11:14:05;24.10;28.60
18291;DHT22;9271;48.590;8.866;2023-04-15T11:16:41;24.20;29.60
18291;DHT22;9271;48.590;8.866;2023-04-15T11:19:09;23.50;29.30
18291;DHT22;9271;48.590;8.866;2023-04-15T11:21:37;23.90;30.70
18291;DHT22;9271;48.590;8.866;2023-04-15T11:24:04;23.70;30.40
18291;DHT22;9271;48.590;8.866;2023-04-15T11:26:31;23.40;31.60
18291;DHT22;9271;48.590;8.866;2023-04-15T11:28:57;22.80;32.10
18291;DHT22;9271;48.590;8.866;2023-04-15T11:31:26;22.40;32.10
18291;DHT22;9271;48.590;8.866;2023-04-15T11:33:55;21.60;32.30
18291;DHT22;9271;48.590;8.866;2023-04-15T11:36:24;20.80;34.70
18291;DHT22;9271;48.590;8.866;2023-04-15T11:38:54;20.50;36.30
18291;DHT22;9271;48.590;8.866;2023-04-15T11:41:21;20.40;38.00
18291;DHT22;9271;48.590;8.866;2023-04-15T11:43:48;19.60;37.50
18291;DHT22;9271;48.590;8.866;2023-04-15T11:46:15;18.80;38.90
18291;DHT22;9271;48.590;8.866;2023-04-15T11:48:44;18.70;39.80
18291;DHT22;9271;48.590;8.866;2023-04-15T11:51:12;18.90;40.30
18291;DHT22;9271;48.590;8.866;2023-04-15T11:53:41;18.60;38.90
18291;DHT22;9271;48.590;8.866;2023-04-15T11:56:10;18.10;39.80
18291;DHT22;9271;48.590;8.866;2023-04-15T11:58:41;17.80;41.00
18291;DHT22;9271;48.590;8.866;2023-04-15T12:01:09;19.20;40.90
18291;DHT22;9271;48.590;8.866;2023-04-15T12:03:37;21.70;36.80
18291;DHT22;9271;48.590;8.866;2023-04-15T12:06:14;24.10;33.80
18291;DHT22;9271;48.590;8.866;2023-04-15T12:08:50;25.30;32.70
18291;DHT22;9271;48.590;8.866;2023-04-15T12:11:18;26.00;31.20
18291;DHT22;9271;48.590;8.866;2023-04-15T12:13:47;25.50;31.30
18291;DHT22;9271;48.590;8.866;2023-04-15T12:16:16;25.00;32.20
18291;DHT22;9271;48.590;8.866;2023-04-15T12:18:44;24.10;34.40
18291;DHT22;9271;48.590;8.866;2023-04-15T12:21:12;24.80;34.50
18291;DHT22;9271;48.590;8.866;2023-04-15T12:23:39;25.40;33.60
18291;DHT22;9271;48.590;8.866;2023-04-15T12:26:13;25.50;32.40
18291;DHT22;9271;48.590;8.866;2023-04-15T12:28:41;24.80;33.00
18291;DHT22;9271;48.590;8.866;2023-04-15T12:31:08;24.90;34.20
18291;DHT22;9271;48.590;8.866;2023-04-15T12:33:35;24.70;35.20
18291;DHT22;9271;48.590;8.866;2023-04-15T12:36:02;24.40;34.40
18291;DHT22;9271;48.590;8.866;2023-04-15T12:38:30;24.60;32.70
18291;DHT22;9271;48.590;8.866;2023-04-15T12:40:57;24.30;34.10
18291;DHT22;9271;48.590;8.866;2023-04-15T12:43:24;26.10;33.80
18291;DHT22;9271;48.590;8.866;2023-04-15T12:45:53;28.20;29.70
18291;DHT22;9271;48.590;8.866;2023-04-15T12:48:19;28.70;27.50
18291;DHT22;9271;48.590;8.866;2023-04-15T12:50:46;26.40;28.80
18291;DHT22;9271;48.590;8.866;2023-04-15T12:53:13;25.40;31.90
18291;DHT22;9271;48.590;8.866;2023-04-15T12:55:39;25.40;31.30
18291;DHT22;9271;48.590;8.866;2023-04-15T12:58:06;26.80;29.40
18291;DHT22;9271;48.590;8.866;2023-04-15T13:00:33;27.30;29.40
18291;DHT22;9271;48.590;8.866;2023-04-15T13:03:02;25.40;31.20
18291;DHT22;9271;48.590;8.866;2023-04-15T13:05:29;23.90;33.40
18291;DHT22;9271;48.590;8.866;2023-04-15T13:07:55;22.40;36.10
18291;DHT22;9271;48.590;8.866;2023-04-15T13:10:22;21.30;38.70
18291;DHT22;9271;48.590;8.866;2023-04-15T13:12:49;20.70;40.10
18291;DHT22;9271;48.590;8.866;2023-04-15T13:15:18;20.90;38.80
18291;DHT22;9271;48.590;8.866;2023-04-15T13:17:46;21.80;38.40
18291;DHT22;9271;48.590;8.866;2023-04-15T13:20:14;22.90;36.60
18291;DHT22;9271;48.590;8.866;2023-04-15T13:22:41;23.00;35.40
18291;DHT22;9271;48.590;8.866;2023-04-15T13:25:09;21.60;35.80
18291;DHT22;9271;48.590;8.866;2023-04-15T13:27:36;20.70;36.60
18291;DHT22;9271;48.590;8.866;2023-04-15T13:30:03;20.10;35.90
18291;DHT22;9271;48.590;8.866;2023-04-15T13:32:30;20.00;37.00
18291;DHT22;9271;48.590;8.866;2023-04-15T13:34:57;19.70;39.00
18291;DHT22;9271;48.590;8.866;2023-04-15T13:37:26;19.00;39.70
18291;DHT22;9271;48.590;8.866;2023-04-15T13:39:53;19.70;39.10
18291;DHT22;9271;48.590;8.866;2023-04-15T13:42:20;20.40;37.00
18291;DHT22;9271;48.590;8.866;2023-04-15T13:44:48;20.30;35.70
18291;DHT22;9271;48.590;8.866;2023-04-15T13:47:16;20.30;34.80
18291;DHT22;9271;48.590;8.866;2023-04-15T13:49:43;20.00;34.20
18291;DHT22;9271;48.590;8.866;2023-04-15T13:52:10;19.60;33.40
18291;DHT22;9271;48.590;8.866;2023-04-15T13:54:38;19.00;33.70
18291;DHT22;9271;48.590;8.866;2023-04-15T13:57:05;18.80;34.50
18291;DHT22;9271;48.590;8.866;2023-04-15T13:59:32;18.60;37.10
18291;DHT22;9271;48.590;8.866;2023-04-15T14:01:59;18.20;39.60
18291;DHT22;9271;48.590;8.866;2023-04-15T14:04:26;17.60;44.60
18291;DHT22;9271;48.590;8.866;2023-04-15T14:06:53;17.70;46.00
18291;DHT22;9271;48.590;8.866;2023-04-15T14:09:19;17.70;46.20
18291;DHT22;9271;48.590;8.866;2023-04-15T14:11:49;17.40;47.10
18291;DHT22;9271;48.590;8.866;2023-04-15T14:14:16;17.50;45.70
18291;DHT22;9271;48.590;8.866;2023-04-15T14:16:43;17.40;45.20
18291;DHT22;9271;48.590;8.866;2023-04-15T14:19:10;17.30;44.80
18291;DHT22;9271;48.590;8.866;2023-04-15T14:21:36;17.20;44.50
18291;DHT22;9271;48.590;8.866;2023-04-15T14:24:03;17.20;44.50
18291;DHT22;9271;48.590;8.866;2023-04-15T14:26:30;17.50;44.70
18291;DHT22;9271;48.590;8.866;2023-04-15T14:28:58;17.20;44.30
18291;DHT22;9271;48.590;8.866;2023-04-15T14:31:25;17.40;44.50
18291;DHT22;9271;48.590;8.866;2023-04-15T14:33:52;17.30;44.40
18291;DHT22;9271;48.590;8.866;2023-04-15T14:36:19;17.20;44.70
18291;DHT22;9271;48.590;8.866;2023-04-15T14:38:45;17.40;44.40
18291;DHT22;9271;48.590;8.866;2023-04-15T14:41:12;17.40;45.40
18291;DHT22;9271;48.590;8.866;2023-04-15T14:43:39;17.70;44.60
18291;DHT22;9271;48.590;8.866;2023-04-15T14:46:07;17.70;43.90
18291;DHT22;9271;48.590;8.866;2023-04-15T14:48:33;17.70;44.70
18291;DHT22;9271;48.590;8.866;2023-04-15T14:51:00;17.50;44.20
18291;DHT22;9271;48.590;8.866;2023-04-15T14:53:27;17.20;44.00
18291;DHT22;9271;48.590;8.866;2023-04-15T14:55:54;16.70;43.80
18291;DHT22;9271;48.590;8.866;2023-04-15T14:58:20;16.30;43.50
18291;DHT22;9271;48.590;8.866;2023-04-15T15:00:47;16.10;43.60
18291;DHT22;9271;48.590;8.866;2023-04-15T15:03:15;16.00;43.30
18291;DHT22;9271;48.590;8.866;2023-04-15T15:05:43;16.10;43.10
18291;DHT22;9271;48.590;8.866;2023-04-15T15:08:11;16.10;42.90
18291;DHT22;9271;48.590;8.866;2023-04-15T15:10:39;15.60;43.20
18291;DHT22;9271;48.590;8.866;2023-04-15T15:13:07;15.40;43.30
18291;DHT22;9271;48.590;8.866;2023-04-15T15:15:35;15.40;44.80
18291;DHT22;9271;48.590;8.866;2023-04-15T15:18:02;15.40;44.90
18291;DHT22;9271;48.590;8.866;2023-04-15T15:20:30;15.70;44.80
18291;DHT22;9271;48.590;8.866;2023-04-15T15:22:57;15.70;45.40
18291;DHT22;9271;48.590;8.866;2023-04-15T15:25:24;15.60;45.60
18291;DHT22;9271;48.590;8.866;2023-04-15T15:27:51;15.50;45.80
18291;DHT22;9271;48.590;8.866;2023-04-15T15:30:17;15.70;45.60
18291;DHT22;9271;48.590;8.866;2023-04-15T15:32:44;15.70;46.20
18291;DHT22;9271;48.590;8.866;2023-04-15T15:35:11;15.90;46.90
18291;DHT22;9271;48.590;8.866;2023-04-15T15:37:40;16.20;46.50
18291;DHT22;9271;48.590;8.866;2023-04-15T15:40:08;16.00;46.70
18291;DHT22;9271;48.590;8.866;2023-04-15T15:42:35;15.80;47.30
18291;DHT22;9271;48.590;8.866;2023-04-15T15:45:02;15.80;47.80
18291;DHT22;9271;48.590;8.866;2023-04-15T15:47:29;15.90;47.40
18291;DHT22;9271;48.590;8.866;2023-04-15T15:49:56;15.80;48.00
18291;DHT22;9271;48.590;8.866;2023-04-15T15:52:23;15.80;48.40
18291;DHT22;9271;48.590;8.866;2023-04-15T15:54:51;16.00;47.40
18291;DHT22;9271;48.590;8.866;2023-04-15T15:57:18;16.00;47.90